createdAt,value
2017-06-17T00:01:22.114Z,3.90
2017-06-17T00:03:49.547Z,4.07
2017-06-17T00:06:16.975Z,2.27
2017-06-17T00:08:45.176Z,5.40
2017-06-17T00:11:12.672Z,3.80
2017-06-17T00:13:40.089Z,3.33
2017-06-17T00:16:07.521Z,3.17
2017-06-17T00:18:35.724Z,4.93
2017-06-17T00:21:03.155Z,2.70
2017-06-17T00:23:31.377Z,5.07
2017-06-17T00:25:58.806Z,6.93
2017-06-17T00:28:26.236Z,10.67
2017-06-17T00:30:53.676Z,3.97
2017-06-17T00:33:21.109Z,5.83
2017-06-17T00:35:48.557Z,4.63
2017-06-17T00:38:15.982Z,8.03
2017-06-17T00:40:44.181Z,6.23
2017-06-17T00:43:11.621Z,6.00
2017-06-17T00:45:39.057Z,5.53
2017-06-17T00:48:07.257Z,9.00
2017-06-17T00:50:34.692Z,5.43
2017-06-17T00:53:02.882Z,4.00
2017-06-17T00:55:30.325Z,4.03
2017-06-17T00:57:58.545Z,6.27
2017-06-17T01:00:26.986Z,3.60
2017-06-17T01:02:55.180Z,5.27
2017-06-17T01:05:28.395Z,3.60
2017-06-17T01:07:55.824Z,6.53
2017-06-17T01:10:23.261Z,4.50
2017-06-17T01:12:51.456Z,6.47
2017-06-17T01:15:18.884Z,8.40
2017-06-17T01:17:46.333Z,9.90
2017-06-17T01:20:13.756Z,7.33
2017-06-17T01:22:41.189Z,8.00
2017-06-17T01:25:08.616Z,7.43
2017-06-17T01:27:36.051Z,3.87
2017-06-17T01:30:03.497Z,7.03
2017-06-17T01:32:30.928Z,4.90
2017-06-17T01:34:58.353Z,4.93
2017-06-17T01:37:25.788Z,4.37
2017-06-17T01:39:53.212Z,6.73
2017-06-17T01:42:20.665Z,5.87
2017-06-17T01:44:48.100Z,5.57
2017-06-17T01:47:15.525Z,10.83
2017-06-17T01:49:42.952Z,8.20
2017-06-17T01:52:10.396Z,6.50
2017-06-17T01:54:37.853Z,7.87
2017-06-17T01:57:05.294Z,4.30
2017-06-17T01:59:32.721Z,3.50
2017-06-17T02:02:00.156Z,8.63
2017-06-17T02:04:27.580Z,8.27
2017-06-17T02:06:55.032Z,5.77
2017-06-17T02:09:22.460Z,5.00
2017-06-17T02:11:49.949Z,7.77
2017-06-17T02:14:17.391Z,7.43
2017-06-17T02:16:44.824Z,5.47
2017-06-17T02:19:12.274Z,8.73
2017-06-17T02:21:46.266Z,8.10
2017-06-17T02:24:13.716Z,10.73
2017-06-17T02:26:41.153Z,5.30
2017-06-17T02:29:08.586Z,5.73
2017-06-17T02:31:36.017Z,7.03
2017-06-17T02:34:03.448Z,4.10
2017-06-17T02:36:31.660Z,7.83
2017-06-17T02:38:59.097Z,10.23
2017-06-17T02:41:27.293Z,9.20
2017-06-17T02:43:54.718Z,6.90
2017-06-17T02:46:22.920Z,14.83
2017-06-17T02:48:50.363Z,6.80
2017-06-17T02:51:18.557Z,5.73
2017-06-17T02:53:45.979Z,6.40
2017-06-17T02:56:14.180Z,11.20
2017-06-17T02:58:41.608Z,4.90
2017-06-17T03:01:09.833Z,5.43
2017-06-17T03:03:37.261Z,9.87
2017-06-17T03:06:04.697Z,7.50
2017-06-17T03:08:32.935Z,6.13
2017-06-17T03:11:00.345Z,8.07
2017-06-17T03:13:27.792Z,7.07
2017-06-17T03:15:55.993Z,4.43
2017-06-17T03:18:23.419Z,6.23
2017-06-17T03:20:51.624Z,12.70
2017-06-17T03:23:19.055Z,6.03
2017-06-17T03:25:47.276Z,4.90
2017-06-17T03:28:14.708Z,6.90
2017-06-17T03:30:42.139Z,5.90
2017-06-17T03:33:10.349Z,7.10
2017-06-17T03:35:37.769Z,7.73
2017-06-17T03:38:05.976Z,6.97
2017-06-17T03:40:33.408Z,7.83
2017-06-17T03:43:01.611Z,6.07
2017-06-17T03:45:29.042Z,4.53
2017-06-17T03:47:57.236Z,7.40
2017-06-17T03:50:25.020Z,7.63
2017-06-17T03:52:52.448Z,4.90
2017-06-17T03:55:19.876Z,14.70
2017-06-17T03:57:48.089Z,5.50
2017-06-17T04:00:15.517Z,9.87
2017-06-17T04:02:43.804Z,11.23
2017-06-17T04:05:11.240Z,4.23
2017-06-17T04:07:39.746Z,9.60
2017-06-17T04:10:07.190Z,8.83
2017-06-17T04:12:35.390Z,4.00
2017-06-17T04:15:02.860Z,8.53
2017-06-17T04:17:30.291Z,6.83
2017-06-17T04:19:57.727Z,9.60
2017-06-17T04:22:25.156Z,6.53
2017-06-17T04:24:52.590Z,7.10
2017-06-17T04:27:20.021Z,6.73
2017-06-17T04:29:47.480Z,9.10
2017-06-17T04:32:14.901Z,8.87
2017-06-17T04:34:42.331Z,11.40
2017-06-17T04:37:09.783Z,10.07
2017-06-17T04:39:37.227Z,12.77
2017-06-17T04:42:04.668Z,6.87
2017-06-17T04:44:32.858Z,10.83
2017-06-17T04:47:00.288Z,6.33
2017-06-17T04:49:27.738Z,5.70
2017-06-17T04:51:55.238Z,15.93
2017-06-17T04:54:22.686Z,8.07
2017-06-17T04:56:50.124Z,5.83
2017-06-17T04:59:17.562Z,5.97
2017-06-17T05:01:45.010Z,6.87
2017-06-17T05:04:12.440Z,11.47
2017-06-17T05:06:39.885Z,7.20
2017-06-17T05:09:11.480Z,6.20
2017-06-17T05:11:39.689Z,5.17
2017-06-17T05:14:07.140Z,5.33
2017-06-17T05:16:34.576Z,6.00
2017-06-17T05:19:02.777Z,6.63
2017-06-17T05:21:30.211Z,4.30
2017-06-17T05:23:58.404Z,2.87
2017-06-17T05:26:25.851Z,13.57
2017-06-17T05:28:53.282Z,7.60
2017-06-17T05:31:21.488Z,6.20
2017-06-17T05:33:48.925Z,5.30
2017-06-17T05:36:17.140Z,9.73
2017-06-17T05:38:44.571Z,3.20
2017-06-17T05:41:12.004Z,8.20
2017-06-17T05:43:40.196Z,5.80
2017-06-17T05:46:07.632Z,6.60
2017-06-17T05:48:35.071Z,7.50
2017-06-17T05:51:02.522Z,4.70
2017-06-17T05:53:29.965Z,4.90
2017-06-17T05:55:57.402Z,4.27
2017-06-17T05:58:24.837Z,6.27
2017-06-17T06:00:52.271Z,6.13
2017-06-17T06:03:19.709Z,7.70
2017-06-17T06:05:47.144Z,6.60
2017-06-17T06:08:14.568Z,4.23
2017-06-17T06:10:42.051Z,11.50
2017-06-17T06:13:09.457Z,9.53
2017-06-17T06:15:36.897Z,7.27
2017-06-17T06:18:04.337Z,12.60
2017-06-17T06:20:31.775Z,11.70
2017-06-17T06:22:59.213Z,4.30
2017-06-17T06:25:26.636Z,7.33
2017-06-17T06:27:54.084Z,3.80
2017-06-17T06:30:21.512Z,5.30
2017-06-17T06:32:48.952Z,5.07
2017-06-17T06:35:16.393Z,6.87
2017-06-17T06:37:43.821Z,10.13
2017-06-17T06:40:12.040Z,6.73
2017-06-17T06:42:39.460Z,5.37
2017-06-17T06:45:06.889Z,6.07
2017-06-17T06:47:34.325Z,4.00
2017-06-17T06:50:01.752Z,5.93
2017-06-17T06:52:29.201Z,11.93
2017-06-17T06:54:56.637Z,5.23
2017-06-17T06:57:24.068Z,6.00
2017-06-17T06:59:52.288Z,7.43
2017-06-17T07:02:19.721Z,3.60
2017-06-17T07:04:47.924Z,4.93
2017-06-17T07:07:15.352Z,6.30
2017-06-17T07:09:44.757Z,5.33
2017-06-17T07:12:14.993Z,3.80
2017-06-17T07:14:43.188Z,8.20
2017-06-17T07:17:10.640Z,5.93
2017-06-17T07:19:38.063Z,3.13
2017-06-17T07:22:05.492Z,4.17
2017-06-17T07:24:32.929Z,12.10
2017-06-17T07:27:00.360Z,4.07
2017-06-17T07:29:27.811Z,5.50
2017-06-17T07:31:56.000Z,2.93
2017-06-17T07:34:23.432Z,6.10
2017-06-17T07:36:51.628Z,7.43
2017-06-17T07:39:19.057Z,4.23
2017-06-17T07:41:46.509Z,3.53
2017-06-17T07:44:13.928Z,3.40
2017-06-17T07:46:41.361Z,6.63
2017-06-17T07:49:08.797Z,7.70
2017-06-17T07:51:36.226Z,4.70
2017-06-17T07:54:03.716Z,4.93
2017-06-17T07:56:31.148Z,4.93
2017-06-17T07:58:58.581Z,2.53
2017-06-17T08:01:26.016Z,5.13
2017-06-17T08:03:53.445Z,7.60
2017-06-17T08:06:20.885Z,5.60
2017-06-17T08:08:48.311Z,8.00
2017-06-17T08:11:15.788Z,4.80
2017-06-17T08:13:43.224Z,3.87
2017-06-17T08:16:10.658Z,8.47
2017-06-17T08:18:38.097Z,4.47
2017-06-17T08:21:05.538Z,6.63
2017-06-17T08:23:32.981Z,7.70
2017-06-17T08:26:01.184Z,4.73
2017-06-17T08:28:28.621Z,6.60
2017-06-17T08:30:56.850Z,3.77
2017-06-17T08:33:24.263Z,8.20
2017-06-17T08:35:51.698Z,7.90
2017-06-17T08:38:19.116Z,3.73
2017-06-17T08:40:46.543Z,6.63
2017-06-17T08:43:13.976Z,8.40
2017-06-17T08:45:41.401Z,3.40
2017-06-17T08:48:09.800Z,6.30
2017-06-17T08:50:37.236Z,4.87
2017-06-17T08:53:04.669Z,6.30
2017-06-17T08:55:32.113Z,4.93
2017-06-17T08:57:59.536Z,6.40
2017-06-17T09:00:27.731Z,3.43
2017-06-17T09:02:55.163Z,9.20
2017-06-17T09:05:24.368Z,5.23
2017-06-17T09:07:52.563Z,2.53
2017-06-17T09:10:22.040Z,3.03
2017-06-17T09:12:50.252Z,6.43
2017-06-17T09:15:17.677Z,3.77
2017-06-17T09:17:45.873Z,6.10
2017-06-17T09:20:13.313Z,9.57
2017-06-17T09:22:41.513Z,11.00
2017-06-17T09:25:08.964Z,3.63
2017-06-17T09:27:36.398Z,17.00
2017-06-17T09:30:03.824Z,7.87
2017-06-17T09:32:31.269Z,11.87
2017-06-17T09:34:58.696Z,7.43
2017-06-17T09:37:26.146Z,7.50
2017-06-17T09:39:53.578Z,4.10
2017-06-17T09:42:21.000Z,6.13
2017-06-17T09:44:48.440Z,6.33
2017-06-17T09:47:15.874Z,8.10
2017-06-17T09:49:43.329Z,5.63
2017-06-17T09:52:10.757Z,6.70
2017-06-17T09:54:39.016Z,8.10
2017-06-17T09:57:06.452Z,3.20
2017-06-17T09:59:33.883Z,9.67
2017-06-17T10:02:01.345Z,9.07
2017-06-17T10:04:28.808Z,11.23
2017-06-17T10:06:56.236Z,6.17
2017-06-17T10:09:23.672Z,4.03
2017-06-17T10:11:51.101Z,6.80
2017-06-17T10:14:18.551Z,4.60
2017-06-17T10:16:45.991Z,4.60
2017-06-17T10:19:13.420Z,8.80
2017-06-17T10:21:40.852Z,11.37
2017-06-17T10:24:08.293Z,11.17
2017-06-17T10:26:35.736Z,6.53
2017-06-17T10:29:03.173Z,6.60
2017-06-17T10:31:30.604Z,70.18
2017-06-17T10:33:58.045Z,96.15
2017-06-17T10:36:26.258Z,137.20
2017-06-17T10:38:53.704Z,126.45
2017-06-17T10:41:21.144Z,12.23
2017-06-17T10:43:48.590Z,10.87
2017-06-17T10:46:16.017Z,6.67
2017-06-17T10:48:45.449Z,11.00
2017-06-17T10:51:12.897Z,9.67
2017-06-17T10:53:40.329Z,5.63
2017-06-17T10:56:07.754Z,9.30
2017-06-17T10:58:35.189Z,8.20
2017-06-17T11:01:02.619Z,10.23
2017-06-17T11:03:30.060Z,5.63
2017-06-17T11:05:57.488Z,3.90
2017-06-17T11:08:24.908Z,6.77
2017-06-17T11:10:52.336Z,6.73
2017-06-17T11:13:19.770Z,7.93
2017-06-17T11:15:47.215Z,8.70
2017-06-17T11:18:14.636Z,6.83
2017-06-17T11:20:42.064Z,8.37
2017-06-17T11:23:09.516Z,6.33
2017-06-17T11:25:36.953Z,8.50
2017-06-17T11:28:04.388Z,7.80
2017-06-17T11:30:31.819Z,6.40
2017-06-17T11:32:59.244Z,6.63
2017-06-17T11:35:26.681Z,7.50
2017-06-17T11:37:54.112Z,8.77
2017-06-17T11:40:21.561Z,6.03
2017-06-17T11:42:48.988Z,14.73
2017-06-17T11:45:16.421Z,4.40
2017-06-17T11:47:43.859Z,5.97
2017-06-17T11:50:11.295Z,4.57
2017-06-17T11:52:38.725Z,6.60
2017-06-17T11:55:08.025Z,7.70
2017-06-17T11:57:36.245Z,5.40
2017-06-17T12:00:03.691Z,9.07
2017-06-17T12:02:31.120Z,7.27
2017-06-17T12:04:59.323Z,12.03
2017-06-17T12:07:29.909Z,11.37
2017-06-17T12:09:58.117Z,5.80
2017-06-17T12:12:25.540Z,9.73
2017-06-17T12:14:53.736Z,9.47
2017-06-17T12:17:21.189Z,6.60
2017-06-17T12:19:51.504Z,5.47
2017-06-17T12:22:19.692Z,9.20
2017-06-17T12:24:47.124Z,5.27
2017-06-17T12:27:15.320Z,6.20
2017-06-17T12:29:42.753Z,7.13
2017-06-17T12:32:10.248Z,7.63
2017-06-17T12:34:37.681Z,16.50
2017-06-17T12:37:05.881Z,6.53
2017-06-17T12:39:33.308Z,9.13
2017-06-17T12:42:01.506Z,5.70
2017-06-17T12:44:29.976Z,5.33
2017-06-17T12:46:57.404Z,8.47
2017-06-17T12:49:24.836Z,7.27
2017-06-17T12:51:52.273Z,6.10
2017-06-17T12:54:19.779Z,6.10
2017-06-17T12:56:47.256Z,6.63
2017-06-17T12:59:15.453Z,4.33
2017-06-17T13:01:42.989Z,4.57
2017-06-17T13:04:11.196Z,5.30
2017-06-17T13:06:38.616Z,4.83
2017-06-17T13:09:07.932Z,9.57
2017-06-17T13:11:35.366Z,4.60
2017-06-17T13:14:03.649Z,6.10
2017-06-17T13:16:31.844Z,4.10
2017-06-17T13:18:59.268Z,3.77
2017-06-17T13:21:26.696Z,5.37
2017-06-17T13:23:54.136Z,8.20
2017-06-17T13:26:21.569Z,9.93
2017-06-17T13:28:48.992Z,5.07
2017-06-17T13:31:16.420Z,8.27
2017-06-17T13:33:43.865Z,8.90
2017-06-17T13:36:11.290Z,6.63
2017-06-17T13:38:38.731Z,4.53
2017-06-17T13:41:06.159Z,8.00
2017-06-17T13:43:33.599Z,3.93
2017-06-17T13:46:01.028Z,4.73
2017-06-17T13:48:28.461Z,3.30
2017-06-17T13:50:55.899Z,6.63
2017-06-17T13:53:23.329Z,3.60
2017-06-17T13:55:50.757Z,4.27
2017-06-17T13:58:18.188Z,5.00
2017-06-17T14:00:45.616Z,5.30
2017-06-17T14:03:13.058Z,6.60
2017-06-17T14:05:40.501Z,3.23
2017-06-17T14:08:07.938Z,4.57
2017-06-17T14:10:35.369Z,3.80
2017-06-17T14:13:03.565Z,7.27
2017-06-17T14:15:31.001Z,3.87
2017-06-17T14:17:59.195Z,6.13
2017-06-17T14:20:26.620Z,4.37
2017-06-17T14:22:54.059Z,5.90
2017-06-17T14:25:21.486Z,4.30
2017-06-17T14:27:48.924Z,4.57
2017-06-17T14:30:16.352Z,6.40
2017-06-17T14:32:44.544Z,6.30
2017-06-17T14:35:11.993Z,4.00
2017-06-17T14:37:39.426Z,6.60
2017-06-17T14:40:06.909Z,5.63
2017-06-17T14:42:34.331Z,5.37
2017-06-17T14:45:01.764Z,6.00
2017-06-17T14:47:29.207Z,5.40
2017-06-17T14:49:56.636Z,5.33
2017-06-17T14:52:24.080Z,5.83
2017-06-17T14:54:52.272Z,7.03
2017-06-17T14:57:19.711Z,5.60
2017-06-17T14:59:47.148Z,6.43
2017-06-17T15:02:14.609Z,5.20
2017-06-17T15:04:42.036Z,6.27
2017-06-17T15:07:09.542Z,5.80
2017-06-17T15:09:37.749Z,10.07
2017-06-17T15:12:05.181Z,8.53
2017-06-17T15:14:32.624Z,9.70
2017-06-17T15:17:00.051Z,7.67
2017-06-17T15:19:27.498Z,10.07
2017-06-17T15:21:54.940Z,13.00
2017-06-17T15:24:22.366Z,10.33
2017-06-17T15:26:49.819Z,7.50
2017-06-17T15:29:17.244Z,9.83
2017-06-17T15:31:44.671Z,12.17
2017-06-17T15:34:12.101Z,8.50
2017-06-17T15:36:39.532Z,12.93
2017-06-17T15:39:06.973Z,11.57
2017-06-17T15:41:34.409Z,17.03
2017-06-17T15:44:01.873Z,11.30
2017-06-17T15:46:29.310Z,7.90
2017-06-17T15:48:56.743Z,13.60
2017-06-17T15:51:24.177Z,13.90
2017-06-17T15:53:51.610Z,11.80
2017-06-17T15:56:19.070Z,10.33
2017-06-17T15:58:46.500Z,9.70
2017-06-17T16:01:13.931Z,10.43
2017-06-17T16:03:41.372Z,13.70
2017-06-17T16:06:08.796Z,9.43
2017-06-17T16:08:36.229Z,11.73
2017-06-17T16:11:03.656Z,16.73
2017-06-17T16:13:31.103Z,12.03
2017-06-17T16:15:58.532Z,11.97
2017-06-17T16:18:25.965Z,14.13
2017-06-17T16:20:53.392Z,9.07
2017-06-17T16:23:20.844Z,11.37
2017-06-17T16:25:48.281Z,14.10
2017-06-17T16:28:15.712Z,13.13
2017-06-17T16:30:43.157Z,12.30
2017-06-17T16:33:10.586Z,11.10
2017-06-17T16:35:38.042Z,14.13
2017-06-17T16:38:06.491Z,14.13
2017-06-17T16:40:33.930Z,13.97
2017-06-17T16:43:02.132Z,13.83
2017-06-17T16:45:30.592Z,14.17
2017-06-17T16:48:00.825Z,14.53
2017-06-17T16:50:29.016Z,10.93
2017-06-17T16:52:56.465Z,10.33
2017-06-17T16:55:23.892Z,14.67
2017-06-17T16:57:51.325Z,11.07
2017-06-17T17:00:18.765Z,9.80
2017-06-17T17:02:46.202Z,13.53
2017-06-17T17:05:13.645Z,10.97
2017-06-17T17:07:41.083Z,21.47
2017-06-17T17:10:09.310Z,16.10
2017-06-17T17:12:36.740Z,10.70
2017-06-17T17:15:04.187Z,11.80
2017-06-17T17:17:31.608Z,18.93
2017-06-17T17:19:59.140Z,13.70
2017-06-17T17:22:26.576Z,16.73
2017-06-17T17:24:54.012Z,12.73
2017-06-17T17:27:21.464Z,14.73
2017-06-17T17:29:49.676Z,11.97
2017-06-17T17:32:17.121Z,14.93
2017-06-17T17:34:44.568Z,15.13
2017-06-17T17:37:11.996Z,16.43
2017-06-17T17:39:40.212Z,14.60
2017-06-17T17:42:07.648Z,10.13
2017-06-17T17:44:35.103Z,20.47
2017-06-17T17:47:02.529Z,17.13
2017-06-17T17:49:29.969Z,18.93
2017-06-17T17:51:57.404Z,17.40
2017-06-17T17:54:24.841Z,14.53
2017-06-17T17:56:52.291Z,17.03
2017-06-17T17:59:19.713Z,21.70
2017-06-17T18:01:47.160Z,10.23
2017-06-17T18:04:14.645Z,15.30
2017-06-17T18:06:42.849Z,14.63
2017-06-17T18:09:10.284Z,11.67
2017-06-17T18:11:38.480Z,16.10
2017-06-17T18:14:05.924Z,11.00
2017-06-17T18:16:33.358Z,17.50
2017-06-17T18:19:00.805Z,14.00
2017-06-17T18:21:28.244Z,9.27
2017-06-17T18:23:55.681Z,13.33
2017-06-17T18:26:30.209Z,14.03
2017-06-17T18:28:57.657Z,15.90
2017-06-17T18:31:25.128Z,13.60
2017-06-17T18:33:52.556Z,11.53
2017-06-17T18:36:19.984Z,12.50
2017-06-17T18:38:50.212Z,15.77
2017-06-17T18:41:18.413Z,12.73
2017-06-17T18:43:45.852Z,13.60
2017-06-17T18:46:15.945Z,19.50
2017-06-17T18:48:44.380Z,13.43
2017-06-17T18:51:11.820Z,16.50
2017-06-17T18:53:39.252Z,21.40
2017-06-17T18:56:06.696Z,13.30
2017-06-17T18:58:34.901Z,18.77
2017-06-17T19:01:02.347Z,14.43
2017-06-17T19:03:30.624Z,16.30
2017-06-17T19:05:58.057Z,15.03
2017-06-17T19:08:26.132Z,14.00
2017-06-17T19:10:53.561Z,15.73
2017-06-17T19:13:21.328Z,14.20
2017-06-17T19:15:48.791Z,16.10
2017-06-17T19:18:16.229Z,21.13
2017-06-17T19:20:43.665Z,17.67
2017-06-17T19:23:11.101Z,18.43
2017-06-17T19:25:38.549Z,12.20
2017-06-17T19:28:06.760Z,22.67
2017-06-17T19:30:34.198Z,14.87
2017-06-17T19:33:01.647Z,13.67
2017-06-17T19:35:30.069Z,16.43
2017-06-17T19:37:57.499Z,19.10
2017-06-17T19:40:24.941Z,14.27
2017-06-17T19:42:52.383Z,16.43
2017-06-17T19:45:19.824Z,18.87
2017-06-17T19:47:47.261Z,16.13
2017-06-17T19:50:14.701Z,14.97
2017-06-17T19:52:42.145Z,14.67
2017-06-17T19:55:09.580Z,12.17
2017-06-17T19:57:37.016Z,14.43
2017-06-17T20:00:04.445Z,15.10
2017-06-17T20:02:31.886Z,13.37
2017-06-17T20:05:00.363Z,19.00
2017-06-17T20:07:27.829Z,14.33
2017-06-17T20:09:55.265Z,16.33
2017-06-17T20:12:22.703Z,15.70
2017-06-17T20:14:51.181Z,14.40
2017-06-17T20:17:18.617Z,15.20
2017-06-17T20:19:46.070Z,11.20
2017-06-17T20:22:19.256Z,13.60
2017-06-17T20:24:46.706Z,10.23
2017-06-17T20:27:14.144Z,16.33
2017-06-17T20:29:41.639Z,14.33
2017-06-17T20:32:09.120Z,10.93
2017-06-17T20:34:36.573Z,20.40
2017-06-17T20:37:04.136Z,13.97
2017-06-17T20:39:32.324Z,16.07
2017-06-17T20:41:59.768Z,13.03
2017-06-17T20:44:27.215Z,22.00
2017-06-17T20:46:55.405Z,16.50
2017-06-17T20:49:22.868Z,12.80
2017-06-17T20:51:50.325Z,18.27
2017-06-17T20:54:18.512Z,14.10
2017-06-17T20:56:45.960Z,13.77
2017-06-17T20:59:13.488Z,13.33
2017-06-17T21:01:41.709Z,13.10
2017-06-17T21:04:09.140Z,12.13
2017-06-17T21:06:36.569Z,10.83
2017-06-17T21:09:04.043Z,14.07
2017-06-17T21:11:31.472Z,12.17
2017-06-17T21:13:58.920Z,15.50
2017-06-17T21:16:26.379Z,17.23
2017-06-17T21:18:53.840Z,10.63
2017-06-17T21:21:21.271Z,12.73
2017-06-17T21:23:48.707Z,13.50
2017-06-17T21:26:16.152Z,15.50
2017-06-17T21:28:43.580Z,13.30
2017-06-17T21:31:11.021Z,17.10
2017-06-17T21:34:16.352Z,16.77
2017-06-17T21:36:43.797Z,20.00
2017-06-17T21:39:11.243Z,15.83
2017-06-17T21:41:38.664Z,11.70
2017-06-17T21:44:06.868Z,11.80
2017-06-17T21:46:34.318Z,13.00
2017-06-17T21:49:01.779Z,14.83
2017-06-17T21:51:29.204Z,12.97
2017-06-17T21:53:57.417Z,12.50
2017-06-17T21:56:24.857Z,15.30
2017-06-17T21:58:52.301Z,12.20
2017-06-17T22:01:20.528Z,15.90
2017-06-17T22:03:47.968Z,16.53
2017-06-17T22:06:15.434Z,13.70
2017-06-17T22:08:42.860Z,11.87
2017-06-17T22:11:10.305Z,15.93
2017-06-17T22:13:38.513Z,18.83
2017-06-17T22:16:05.944Z,15.97
2017-06-17T22:18:33.412Z,14.77
2017-06-17T22:21:00.844Z,15.17
2017-06-17T22:23:29.040Z,10.90
2017-06-17T22:25:56.476Z,14.20
2017-06-17T22:28:24.684Z,12.47
2017-06-17T22:30:52.134Z,11.27
2017-06-17T22:33:19.569Z,14.00
2017-06-17T22:35:47.782Z,13.63
2017-06-17T22:38:15.220Z,14.93
2017-06-17T22:40:42.651Z,17.80
2017-06-17T22:43:10.088Z,15.00
2017-06-17T22:45:37.526Z,17.70
2017-06-17T22:48:04.966Z,11.53
2017-06-17T22:50:32.396Z,10.33
2017-06-17T22:52:59.828Z,12.90
2017-06-17T22:55:28.037Z,11.87
2017-06-17T22:57:55.473Z,15.27
2017-06-17T23:00:23.693Z,11.97
2017-06-17T23:02:51.125Z,16.20
2017-06-17T23:05:23.277Z,15.00
2017-06-17T23:07:50.709Z,17.20
2017-06-17T23:10:18.148Z,12.73
2017-06-17T23:12:45.593Z,16.50
2017-06-17T23:15:13.033Z,17.80
2017-06-17T23:17:40.468Z,15.13
2017-06-17T23:20:07.905Z,14.07
2017-06-17T23:22:36.120Z,11.70
2017-06-17T23:25:03.561Z,12.93
2017-06-17T23:27:30.996Z,13.33
2017-06-17T23:29:58.440Z,15.43
2017-06-17T23:32:25.878Z,13.57
2017-06-17T23:34:53.325Z,16.00
2017-06-17T23:37:20.761Z,15.67
2017-06-17T23:39:48.212Z,17.53
2017-06-17T23:42:15.636Z,14.00
2017-06-17T23:44:43.360Z,19.10
2017-06-17T23:47:10.792Z,15.90
2017-06-17T23:49:38.233Z,17.40
2017-06-17T23:52:05.673Z,15.13
2017-06-17T23:54:33.885Z,19.13
2017-06-17T23:57:01.333Z,18.93
2017-06-17T23:59:28.767Z,17.17
